Time;durP1;ratioP1;P1;durP2;ratioP2;P2;SDS_P1;SDS_P2;PMS_P1;PMS_P2;Temp;Humidity;BMP_temperature;BMP_pressure;BME280_temperature;BME280_humidity;BME280_pressure;Samples;Min_cycle;Max_cycle;Signal;HPM_P1;HPM_P2
2022/09/25 04:03:47;;;;;;;11.87;8.10;;;12.90;99.90;;;;;;5876764;23;20481;-69
2022/09/25 04:06:17;;;;;;;11.57;8.80;;;12.90;99.90;;;;;;4976299;28;20962;-70
2022/09/25 04:08:43;;;;;;;13.00;9.10;;;12.90;99.90;;;;;;4976540;28;20449;-71
2022/09/25 04:11:09;;;;;;;12.13;10.03;;;12.90;99.90;;;;;;4974883;28;20431;-70
2022/09/25 04:13:36;;;;;;;10.60;7.90;;;12.90;99.90;;;;;;4975620;28;20445;-70
2022/09/25 04:16:04;;;;;;;13.50;9.03;;;12.90;99.90;;;;;;4975890;28;20422;-70
2022/09/25 04:18:30;;;;;;;12.40;10.23;;;12.90;99.90;;;;;;4976496;28;20765;-71
2022/09/25 04:21:00;;;;;;;14.17;8.30;;;12.90;99.90;;;;;;4976482;28;20842;-71
2022/09/25 04:23:26;;;;;;;11.83;8.50;;;12.90;99.90;;;;;;4974606;28;20446;-71
2022/09/25 04:25:52;;;;;;;11.80;9.57;;;12.90;99.90;;;;;;4975308;28;20434;-71
2022/09/25 04:28:21;;;;;;;12.73;9.30;;;12.90;99.90;;;;;;4975897;28;20923;-70
2022/09/25 04:30:46;;;;;;;8.60;7.67;;;12.80;99.90;;;;;;4976332;28;20437;-71
2022/09/25 04:35:56;;;;;;;10.30;7.73;;;12.80;99.90;;;;;;4976062;28;20229;-71
2022/09/25 04:38:22;;;;;;;11.67;8.63;;;12.80;99.90;;;;;;4974195;28;20767;-71
2022/09/25 04:40:47;;;;;;;10.67;8.30;;;12.90;99.90;;;;;;4974869;28;20179;-70
2022/09/25 04:43:13;;;;;;;9.90;8.67;;;13.00;99.90;;;;;;4974053;28;20176;-68
2022/09/25 04:45:39;;;;;;;11.70;9.00;;;12.90;99.90;;;;;;4975986;28;20187;-71
2022/09/25 04:48:05;;;;;;;11.50;7.27;;;12.90;99.90;;;;;;4975789;28;20183;-70
2022/09/25 04:50:31;;;;;;;12.20;8.67;;;12.90;99.90;;;;;;4975910;28;20680;-71
2022/09/25 04:52:57;;;;;;;11.97;9.80;;;12.80;99.90;;;;;;4970354;28;20736;-70
2022/09/25 04:55:24;;;;;;;9.97;8.23;;;12.80;99.90;;;;;;4975410;28;20812;-71
2022/09/25 04:57:54;;;;;;;10.70;9.33;;;12.80;99.90;;;;;;4975557;28;20830;-72
2022/09/25 05:00:23;;;;;;;9.20;7.47;;;12.80;99.90;;;;;;4975898;28;20377;-71
2022/09/25 05:02:48;;;;;;;11.80;9.50;;;12.80;99.90;;;;;;4974984;28;20517;-71
2022/09/25 05:05:14;;;;;;;10.57;7.93;;;12.80;99.90;;;;;;4975108;28;20541;-71
2022/09/25 05:07:50;;;;;;;9.17;7.23;;;12.80;99.90;;;;;;4975436;28;20230;-71
2022/09/25 05:10:15;;;;;;;13.47;8.97;;;12.80;99.90;;;;;;4975624;28;20414;-71
2022/09/25 05:12:41;;;;;;;7.87;7.03;;;12.80;99.90;;;;;;4974814;28;20841;-71
2022/09/25 05:15:08;;;;;;;11.00;8.57;;;12.80;99.90;;;;;;4975144;28;20202;-72
2022/09/25 05:17:34;;;;;;;13.13;8.83;;;12.90;99.90;;;;;;4974562;28;20262;-70
2022/09/25 05:19:59;;;;;;;11.40;8.23;;;12.90;99.90;;;;;;4974749;28;20830;-71
2022/09/25 05:22:25;;;;;;;14.00;7.43;;;12.90;99.90;;;;;;4974362;28;20183;-71
2022/09/25 05:24:52;;;;;;;12.30;8.30;;;13.00;99.90;;;;;;4975123;28;20245;-70
2022/09/25 05:27:22;;;;;;;9.30;8.07;;;12.90;99.90;;;;;;4974788;28;20179;-71
2022/09/25 05:29:50;;;;;;;13.60;7.87;;;12.90;99.90;;;;;;4974083;28;20437;-71
2022/09/25 05:32:17;;;;;;;8.40;7.30;;;13.00;99.90;;;;;;4975548;28;20384;-72
2022/09/25 05:34:43;;;;;;;12.07;7.63;;;13.00;99.90;;;;;;4975052;28;20442;-70
2022/09/25 05:37:08;;;;;;;17.70;8.43;;;13.10;99.90;;;;;;4974374;28;20427;-71
2022/09/25 05:39:34;;;;;;;9.97;7.17;;;13.00;99.90;;;;;;4975063;28;20190;-70
2022/09/25 05:42:01;;;;;;;8.47;6.83;;;13.00;99.90;;;;;;4975007;28;20175;-71
2022/09/25 05:44:27;;;;;;;9.93;6.20;;;13.00;99.90;;;;;;4974547;28;20192;-71
2022/09/25 05:46:55;;;;;;;7.37;6.67;;;13.00;99.90;;;;;;4974558;28;20910;-71
2022/09/25 05:49:22;;;;;;;7.40;6.33;;;13.10;99.90;;;;;;4973677;28;20512;-71
2022/09/25 05:51:48;;;;;;;7.17;6.10;;;13.00;99.90;;;;;;4974486;28;20437;-70
2022/09/25 05:54:14;;;;;;;9.50;7.40;;;13.10;99.90;;;;;;4974312;28;20212;-71
2022/09/25 05:56:39;;;;;;;7.07;6.23;;;13.10;99.90;;;;;;4974719;28;20517;-71
2022/09/25 05:59:05;;;;;;;9.47;5.80;;;13.10;99.90;;;;;;4974621;28;20192;-70
2022/09/25 06:01:31;;;;;;;10.13;6.97;;;13.10;99.90;;;;;;4973083;28;20556;-72
2022/09/25 06:03:56;;;;;;;9.70;8.00;;;13.00;99.90;;;;;;4973651;28;20202;-72
2022/09/25 06:06:22;;;;;;;9.63;7.17;;;13.00;99.90;;;;;;4973573;28;20190;-70
2022/09/25 06:08:47;;;;;;;9.87;6.87;;;13.00;99.90;;;;;;4973065;28;20576;-71
2022/09/25 06:11:13;;;;;;;7.77;6.97;;;13.10;99.90;;;;;;4974231;28;20214;-71
2022/09/25 06:13:41;;;;;;;8.87;6.80;;;13.10;99.90;;;;;;4972819;28;20199;-71
2022/09/25 06:16:13;;;;;;;10.57;6.97;;;13.20;99.90;;;;;;4974295;28;20238;-70
2022/09/25 06:18:39;;;;;;;12.67;9.10;;;13.20;99.90;;;;;;4973994;28;20433;-70
2022/09/25 06:21:05;;;;;;;9.93;7.47;;;13.20;99.90;;;;;;4974418;28;20410;-70
2022/09/25 06:23:31;;;;;;;11.83;8.47;;;13.30;99.90;;;;;;4972719;28;20207;-70
2022/09/25 06:26:05;;;;;;;10.90;6.93;;;13.30;99.90;;;;;;4974171;28;20966;-72
2022/09/25 06:28:31;;;;;;;7.60;6.13;;;13.40;99.90;;;;;;4974113;28;20207;-71
2022/09/25 06:31:00;;;;;;;11.70;8.40;;;13.40;99.90;;;;;;4974450;28;20413;-70
2022/09/25 06:33:25;;;;;;;12.07;8.30;;;13.40;99.90;;;;;;4976124;28;20850;-71
2022/09/25 06:35:51;;;;;;;11.67;8.73;;;13.50;99.90;;;;;;4978289;28;20482;-70
2022/09/25 06:38:17;;;;;;;8.37;6.70;;;13.50;99.90;;;;;;4977925;28;20653;-71
2022/09/25 06:40:43;;;;;;;9.83;7.97;;;13.60;99.90;;;;;;4978116;28;20192;-70
2022/09/25 06:43:10;;;;;;;9.53;7.77;;;13.70;99.90;;;;;;4976041;28;20400;-71
2022/09/25 06:45:37;;;;;;;9.73;7.57;;;13.80;99.90;;;;;;4977911;28;20698;-71
2022/09/25 06:48:09;;;;;;;8.83;5.83;;;13.90;99.90;;;;;;4977929;28;20431;-69
2022/09/25 06:50:40;;;;;;;10.27;7.90;;;13.90;99.90;;;;;;4978138;28;20407;-69
2022/09/25 06:53:06;;;;;;;8.77;7.37;;;14.00;99.90;;;;;;4977327;28;20406;-70
2022/09/25 06:55:33;;;;;;;10.70;6.90;;;14.10;99.90;;;;;;4977531;28;20433;-70
2022/09/25 06:58:00;;;;;;;10.67;7.67;;;14.20;99.90;;;;;;4978030;28;20802;-69
2022/09/25 07:00:26;;;;;;;8.80;6.77;;;14.20;99.90;;;;;;4977848;28;21024;-71
2022/09/25 07:05:36;;;;;;;13.00;8.67;;;14.30;99.90;;;;;;4977000;28;20467;-71
2022/09/25 07:08:02;;;;;;;7.90;7.17;;;14.30;99.90;;;;;;4977732;28;20407;-71
2022/09/25 07:10:28;;;;;;;10.43;8.80;;;14.40;99.90;;;;;;4976311;28;20661;-70
2022/09/25 07:12:53;;;;;;;13.47;8.70;;;14.40;99.90;;;;;;4975795;28;20427;-69
2022/09/25 07:15:19;;;;;;;13.60;9.50;;;14.40;99.90;;;;;;4976955;28;20764;-70
2022/09/25 07:17:45;;;;;;;10.67;8.37;;;14.50;99.90;;;;;;4976603;28;20512;-70
2022/09/25 07:20:14;;;;;;;11.57;9.10;;;14.50;99.90;;;;;;4975395;28;20191;-70
2022/09/25 07:22:40;;;;;;;12.83;8.10;;;14.50;99.90;;;;;;4974932;28;20447;-70
2022/09/25 07:25:06;;;;;;;9.17;7.80;;;14.50;99.90;;;;;;4975324;28;21192;-72
2022/09/25 07:27:32;;;;;;;9.40;7.07;;;14.60;99.90;;;;;;4975087;28;20438;-69
2022/09/25 07:29:58;;;;;;;7.80;5.90;;;14.50;99.90;;;;;;4974394;28;21281;-67
2022/09/25 07:32:23;;;;;;;7.20;6.27;;;14.60;99.90;;;;;;4975562;28;20227;-69
2022/09/25 07:34:49;;;;;;;8.53;6.87;;;14.60;99.90;;;;;;4976823;28;20275;-69
2022/09/25 07:37:16;;;;;;;10.43;7.10;;;14.60;99.90;;;;;;4977230;28;20191;-67
2022/09/25 07:39:42;;;;;;;9.90;8.70;;;14.60;99.90;;;;;;4977083;28;20510;-67
2022/09/25 07:42:08;;;;;;;6.73;6.03;;;14.70;99.90;;;;;;4976251;28;20507;-66
2022/09/25 07:44:34;;;;;;;6.40;5.47;;;14.70;99.90;;;;;;4975105;28;20788;-66
2022/09/25 07:47:00;;;;;;;6.40;5.80;;;14.70;99.90;;;;;;4976805;28;20393;-66
2022/09/25 07:49:26;;;;;;;7.63;6.63;;;14.80;99.90;;;;;;4975416;28;20247;-66
2022/09/25 07:51:51;;;;;;;9.10;6.57;;;14.80;99.90;;;;;;4976570;28;20428;-66
2022/09/25 07:54:17;;;;;;;9.00;6.47;;;14.90;99.90;;;;;;4976052;28;20535;-67
2022/09/25 07:56:43;;;;;;;7.00;5.80;;;14.90;99.90;;;;;;4976591;28;20176;-68
2022/09/25 07:59:08;;;;;;;7.43;5.07;;;14.90;99.90;;;;;;4975423;28;20186;-68
2022/09/25 08:01:34;;;;;;;9.00;6.33;;;15.00;99.90;;;;;;4975139;28;20189;-67
2022/09/25 08:04:00;;;;;;;9.33;6.63;;;15.00;99.90;;;;;;4974932;28;21016;-70
2022/09/25 08:06:25;;;;;;;7.40;6.03;;;15.10;99.90;;;;;;4976550;28;20196;-71
2022/09/25 08:08:51;;;;;;;8.17;6.17;;;15.10;99.90;;;;;;4974882;28;20589;-68
2022/09/25 08:11:17;;;;;;;6.10;5.23;;;15.10;99.90;;;;;;4975699;28;20169;-68
2022/09/25 08:13:44;;;;;;;6.77;6.03;;;15.20;99.90;;;;;;4975879;28;20195;-68
2022/09/25 08:16:12;;;;;;;6.33;5.73;;;15.20;99.90;;;;;;4976446;28;20444;-68
2022/09/25 08:18:42;;;;;;;5.40;4.73;;;15.20;99.90;;;;;;4976431;28;20412;-65
2022/09/25 08:21:09;;;;;;;5.70;5.20;;;15.20;99.90;;;;;;4975777;28;20507;-67
2022/09/25 08:23:35;;;;;;;6.67;5.63;;;15.20;99.90;;;;;;4975485;28;20443;-66
2022/09/25 08:26:01;;;;;;;8.77;6.23;;;15.20;99.90;;;;;;4976409;28;20460;-69
2022/09/25 08:28:27;;;;;;;4.93;4.40;;;15.20;99.90;;;;;;4976099;28;20452;-67
2022/09/25 08:30:53;;;;;;;7.53;5.93;;;15.20;99.90;;;;;;4976312;28;20400;-69
2022/09/25 08:33:19;;;;;;;9.27;5.77;;;15.20;99.90;;;;;;4975098;28;20785;-68
2022/09/25 08:35:57;;;;;;;7.03;5.07;;;15.20;99.90;;;;;;4974573;28;20172;-70
2022/09/25 08:38:24;;;;;;;5.87;5.27;;;15.10;99.90;;;;;;4974683;28;20415;-71
2022/09/25 08:41:10;;;;;;;8.20;5.20;;;15.00;99.90;;;;;;4975565;28;20505;-68
2022/09/25 08:43:44;;;;;;;7.30;5.90;;;15.00;99.90;;;;;;4956095;28;20506;-70
2022/09/25 08:49:05;;;;;;;5.90;5.20;;;15.20;99.90;;;;;;4956502;29;20989;-67
2022/09/25 08:51:41;;;;;;;6.30;5.67;;;15.30;99.90;;;;;;4972687;28;20459;-66
2022/09/25 08:54:14;;;;;;;7.47;6.23;;;15.40;99.90;;;;;;4975418;28;20439;-66
2022/09/25 08:56:40;;;;;;;7.30;5.57;;;15.50;99.90;;;;;;4975137;28;20535;-66
2022/09/25 08:59:29;;;;;;;7.47;5.50;;;15.60;99.90;;;;;;4975684;28;20955;-67
2022/09/25 09:02:08;;;;;;;6.03;4.80;;;15.60;99.90;;;;;;4974145;28;20897;-65
2022/09/25 09:04:43;;;;;;;8.90;5.77;;;15.80;99.90;;;;;;4975247;28;20426;-68
2022/09/25 09:07:34;;;;;;;5.07;4.57;;;16.00;99.90;;;;;;4975563;28;20926;-67
2022/09/25 09:10:18;;;;;;;7.27;6.50;;;16.10;99.90;;;;;;4974989;28;20457;-66
2022/09/25 09:12:48;;;;;;;6.33;5.13;;;16.20;99.90;;;;;;4955957;29;20408;-66
2022/09/25 09:15:31;;;;;;;8.13;6.70;;;16.10;99.90;;;;;;4971831;28;20447;-70
2022/09/25 09:18:00;;;;;;;5.40;4.90;;;16.10;99.90;;;;;;4975376;28;20476;-67
2022/09/25 09:20:41;;;;;;;6.63;6.00;;;16.20;99.90;;;;;;4975265;28;20434;-65
2022/09/25 09:23:16;;;;;;;8.13;6.07;;;16.40;99.90;;;;;;4974044;28;20403;-67
2022/09/25 09:25:46;;;;;;;10.03;6.10;;;16.50;99.90;;;;;;4975048;28;20477;-69
2022/09/25 09:28:55;;;;;;;6.20;5.47;;;16.60;99.90;;;;;;4974970;28;20457;-64
2022/09/25 09:31:46;;;;;;;6.67;5.77;;;16.60;99.90;;;;;;4973079;28;20510;-67
2022/09/25 09:34:45;;;;;;;6.30;5.70;;;16.70;99.90;;;;;;4963916;28;20930;-67
2022/09/25 09:38:00;;;;;;;6.53;5.83;;;17.00;99.90;;;;;;4975284;28;20419;-69
2022/09/25 09:41:00;;;;;;;5.83;4.87;;;17.20;99.90;;;;;;4961917;28;20424;-69
2022/09/25 09:44:00;;;;;;;5.97;5.27;;;17.40;99.90;;;;;;4974429;28;20432;-69
2022/09/25 09:46:29;;;;;;;6.73;6.00;;;17.50;99.90;;;;;;4974291;28;20419;-68
2022/09/25 09:49:15;;;;;;;5.87;4.57;;;17.60;99.90;;;;;;4973838;28;20514;-69
2022/09/25 09:51:53;;;;;;;6.70;6.07;;;17.50;99.90;;;;;;4974761;28;20758;-70
2022/09/25 09:54:44;;;;;;;5.90;5.30;;;17.40;99.90;;;;;;4974621;28;20789;-68
2022/09/25 09:57:18;;;;;;;6.00;5.40;;;17.40;99.90;;;;;;4975255;28;20419;-67
2022/09/25 09:59:48;;;;;;;7.63;5.40;;;17.50;99.90;;;;;;4974400;28;20926;-70
2022/09/25 10:02:41;;;;;;;5.60;5.00;;;17.40;99.90;;;;;;4974850;28;20399;-69
2022/09/25 10:05:29;;;;;;;5.20;4.70;;;17.50;99.90;;;;;;4953956;28;20539;-69
2022/09/25 10:07:54;;;;;;;5.60;4.70;;;17.40;99.90;;;;;;4955062;28;20424;-68
2022/09/25 10:10:26;;;;;;;5.80;5.20;;;17.40;99.90;;;;;;4955327;28;20456;-67
2022/09/25 10:12:53;;;;;;;5.10;4.43;;;17.30;99.90;;;;;;4975146;28;20164;-68
2022/09/25 10:15:34;;;;;;;7.27;6.10;;;17.20;99.90;;;;;;4958114;28;20961;-68
2022/09/25 10:18:01;;;;;;;6.93;6.27;;;17.20;99.90;;;;;;4965615;28;20395;-68
2022/09/25 10:20:44;;;;;;;5.27;4.77;;;17.10;99.90;;;;;;4972694;28;20545;-69
2022/09/25 10:23:36;;;;;;;7.73;6.23;;;17.10;99.90;;;;;;4972725;28;20428;-68
2022/09/25 10:26:02;;;;;;;7.43;5.87;;;17.00;99.90;;;;;;4948610;28;20489;-65
2022/09/25 10:28:34;;;;;;;5.63;4.93;;;17.00;99.90;;;;;;4974045;28;20517;-66
2022/09/25 10:31:04;;;;;;;7.37;5.57;;;16.80;99.90;;;;;;4973269;28;20472;-71
2022/09/25 10:33:31;;;;;;;7.53;5.47;;;16.80;99.90;;;;;;4964126;28;20447;-71
2022/09/25 10:35:58;;;;;;;7.47;5.30;;;16.80;99.90;;;;;;4974228;28;20409;-71
2022/09/25 10:38:47;;;;;;;7.23;6.40;;;16.80;99.90;;;;;;4973596;28;20416;-70
2022/09/25 10:41:16;;;;;;;7.10;5.97;;;16.70;99.90;;;;;;4974013;28;20764;-71
2022/09/25 10:43:59;;;;;;;7.63;5.73;;;16.70;99.90;;;;;;4972653;28;20983;-69
2022/09/25 10:52:08;;;;;;;7.80;5.73;;;16.70;99.90;;;;;;4973321;28;20861;-70
2022/09/25 10:54:35;;;;;;;7.37;6.00;;;16.70;99.90;;;;;;4973241;28;20439;-69
2022/09/25 10:57:16;;;;;;;8.97;7.17;;;16.80;99.90;;;;;;4972744;28;20466;-69
2022/09/25 10:59:49;;;;;;;10.80;8.10;;;16.90;99.90;;;;;;4973376;28;20427;-70
2022/09/25 11:02:37;;;;;;;10.87;7.57;;;17.10;99.90;;;;;;4973677;28;20507;-69
2022/09/25 11:05:06;;;;;;;7.83;6.20;;;17.00;99.90;;;;;;4973893;28;20564;-69
2022/09/25 11:07:33;;;;;;;7.40;6.53;;;17.00;99.90;;;;;;4972541;28;20472;-72
2022/09/25 11:09:59;;;;;;;10.50;6.23;;;17.10;99.90;;;;;;4973659;28;20462;-69
2022/09/25 11:12:28;;;;;;;9.60;6.17;;;17.00;99.90;;;;;;4972864;28;20431;-70
2022/09/25 11:15:01;;;;;;;8.00;7.13;;;16.90;99.90;;;;;;4973524;28;20194;-70
2022/09/25 11:17:54;;;;;;;9.57;7.20;;;16.80;99.90;;;;;;4974226;28;20714;-71
2022/09/25 11:20:30;;;;;;;8.53;6.77;;;16.70;99.90;;;;;;4973991;28;20419;-71
2022/09/25 11:23:15;;;;;;;16.00;7.73;;;16.60;99.90;;;;;;4976694;28;20753;-69
2022/09/25 11:26:00;;;;;;;9.97;7.00;;;16.50;99.90;;;;;;4958396;29;20454;-69
2022/09/25 11:28:26;;;;;;;9.53;7.27;;;16.30;99.90;;;;;;4958302;29;20433;-70
2022/09/25 11:31:15;;;;;;;8.67;6.67;;;16.20;99.90;;;;;;4957861;29;20402;-70
2022/09/25 11:34:06;;;;;;;10.37;7.10;;;16.20;99.90;;;;;;4950286;28;20207;-70
2022/09/25 11:36:45;;;;;;;10.20;6.17;;;16.00;99.90;;;;;;4971329;28;20452;-70
2022/09/25 11:42:17;;;;;;;8.93;7.40;;;15.70;99.90;;;;;;4975869;28;20487;-69
2022/09/25 11:44:59;;;;;;;9.20;8.00;;;15.70;99.90;;;;;;4975702;28;20498;-71
2022/09/25 11:47:52;;;;;;;11.30;7.50;;;15.60;99.90;;;;;;4977092;28;20434;-71
2022/09/25 11:50:21;;;;;;;17.23;12.40;;;15.60;99.90;;;;;;4976280;28;20461;-70
2022/09/25 11:53:01;;;;;;;9.10;7.70;;;15.60;99.90;;;;;;4976333;28;20427;-70
2022/09/25 11:55:36;;;;;;;11.20;8.43;;;15.50;99.90;;;;;;4976877;28;20424;-71
2022/09/25 11:58:34;;;;;;;13.00;9.07;;;15.60;99.90;;;;;;4976810;28;20374;-71
2022/09/25 12:01:10;;;;;;;10.07;8.43;;;15.70;99.90;;;;;;4976887;28;20408;-69
2022/09/25 12:03:50;;;;;;;17.43;10.00;;;15.90;99.90;;;;;;4976074;28;20531;-69
2022/09/25 12:06:47;;;;;;;12.40;9.30;;;16.00;99.90;;;;;;4976374;28;20443;-70
2022/09/25 12:09:54;;;;;;;12.00;8.70;;;16.20;99.90;;;;;;4976777;28;20951;-71
2022/09/25 12:12:32;;;;;;;14.20;8.73;;;16.40;99.90;;;;;;4976705;28;20402;-71
2022/09/25 12:15:42;;;;;;;11.30;9.03;;;16.60;99.90;;;;;;4976195;28;20517;-71
2022/09/25 12:18:26;;;;;;;8.23;6.80;;;16.80;99.90;;;;;;4957307;29;20407;-70
2022/09/25 12:21:05;;;;;;;9.80;7.53;;;17.10;99.90;;;;;;4957230;29;20375;-70
2022/09/25 12:23:51;;;;;;;8.97;7.47;;;17.20;99.90;;;;;;4956594;28;20455;-70
2022/09/25 12:26:42;;;;;;;10.43;8.07;;;17.40;99.90;;;;;;4959096;28;20528;-70
2022/09/25 12:29:34;;;;;;;9.17;7.40;;;17.50;99.90;;;;;;4974816;28;20510;-69
2022/09/25 12:32:39;;;;;;;9.77;7.90;;;17.60;99.90;;;;;;4975318;28;20424;-70
2022/09/25 12:35:14;;;;;;;7.80;7.00;;;17.60;99.90;;;;;;4974914;28;20409;-69
2022/09/25 12:37:45;;;;;;;9.33;8.00;;;17.60;99.90;;;;;;4975905;28;20931;-69
2022/09/25 12:40:42;;;;;;;11.17;8.33;;;17.60;99.90;;;;;;4976077;28;20448;-69
2022/09/25 12:43:53;;;;;;;7.63;6.93;;;17.70;99.90;;;;;;4975784;28;20404;-69
2022/09/25 12:46:36;;;;;;;8.50;7.70;;;17.80;99.90;;;;;;4970032;28;20809;-69
2022/09/25 12:49:31;;;;;;;10.47;8.83;;;17.90;99.90;;;;;;4956389;29;20459;-69
2022/09/25 12:52:04;;;;;;;12.23;8.10;;;17.70;99.90;;;;;;4969133;28;20390;-70
2022/09/25 12:54:41;;;;;;;10.93;8.10;;;17.50;99.90;;;;;;4974621;28;20471;-71
2022/09/25 12:57:22;;;;;;;10.80;8.10;;;17.40;99.90;;;;;;4975674;28;20382;-70
2022/09/25 12:59:52;;;;;;;12.73;8.70;;;17.30;99.90;;;;;;4976190;28;20419;-71
2022/09/25 13:02:37;;;;;;;9.40;7.47;;;17.20;99.90;;;;;;4974858;28;20944;-70
2022/09/25 13:05:10;;;;;;;8.17;6.67;;;17.10;99.90;;;;;;4974084;28;20465;-69
2022/09/25 13:07:48;;;;;;;9.73;6.90;;;17.00;99.90;;;;;;4975251;28;20424;-70
2022/09/25 13:10:23;;;;;;;10.67;8.50;;;17.10;99.90;;;;;;4975480;28;20541;-70
2022/09/25 13:12:51;;;;;;;8.60;7.03;;;17.20;99.90;;;;;;4974970;28;20513;-70
2022/09/25 13:15:34;;;;;;;7.90;5.57;;;17.20;99.90;;;;;;4975320;28;20424;-70
2022/09/25 13:18:00;;;;;;;6.47;4.80;;;17.20;99.90;;;;;;4972751;28;20412;-70
2022/09/25 13:20:25;;;;;;;8.17;4.90;;;17.20;99.90;;;;;;4974612;28;20426;-71
2022/09/25 13:23:07;;;;;;;5.73;5.20;;;17.30;99.90;;;;;;4973670;28;20939;-70
2022/09/25 13:26:01;;;;;;;5.60;5.10;;;17.40;99.90;;;;;;4975627;28;20186;-71
2022/09/25 13:28:32;;;;;;;7.60;6.30;;;17.40;99.90;;;;;;4974964;28;20560;-72
2022/09/25 13:31:12;;;;;;;5.30;4.80;;;17.40;99.90;;;;;;4975142;28;20428;-68
2022/09/25 13:34:05;;;;;;;6.77;5.53;;;17.50;99.90;;;;;;4974065;28;20447;-70
2022/09/25 13:36:45;;;;;;;7.57;5.20;;;17.60;99.90;;;;;;4973554;28;20498;-70
2022/09/25 13:42:36;;;;;;;9.33;8.33;;;17.70;99.90;;;;;;4973820;28;20428;-70
2022/09/25 13:45:33;;;;;;;10.20;9.20;;;17.60;99.90;;;;;;4973449;28;20455;-68
2022/09/25 13:48:29;;;;;;;6.80;6.10;;;17.50;99.90;;;;;;4975130;28;20446;-70
2022/09/25 13:51:17;;;;;;;6.50;5.83;;;17.50;99.90;;;;;;4975034;28;20447;-70
2022/09/25 13:54:02;;;;;;;6.87;5.07;;;17.60;99.90;;;;;;4974493;28;20424;-69
2022/09/25 13:56:49;;;;;;;7.77;7.00;;;17.80;99.90;;;;;;4972972;28;20412;-70
2022/09/25 13:59:15;;;;;;;5.93;5.37;;;18.00;99.90;;;;;;4974504;28;20431;-69
2022/09/25 14:01:43;;;;;;;5.10;4.60;;;18.10;99.90;;;;;;4974763;28;20438;-69
2022/09/25 14:04:13;;;;;;;6.00;5.40;;;18.10;99.90;;;;;;4974376;28;20184;-70
2022/09/25 14:06:44;;;;;;;7.60;5.10;;;18.00;99.90;;;;;;4974574;28;20401;-70
2022/09/25 14:09:31;;;;;;;6.33;5.73;;;18.10;99.90;;;;;;4974477;28;20461;-70
2022/09/25 14:12:18;;;;;;;6.33;5.73;;;18.10;99.90;;;;;;4972789;28;20968;-70
2022/09/25 14:14:51;;;;;;;5.77;5.23;;;18.10;99.90;;;;;;4985188;28;20426;-71
2022/09/25 14:17:19;;;;;;;4.90;4.50;;;18.10;99.90;;;;;;4973832;28;20412;-70
2022/09/25 14:19:48;;;;;;;5.70;5.10;;;18.10;99.90;;;;;;4974050;28;20519;-70
2022/09/25 14:22:45;;;;;;;4.83;4.43;;;18.00;99.90;;;;;;4975224;28;20430;-70
2022/09/25 14:25:35;;;;;;;6.07;4.60;;;17.90;99.90;;;;;;4975561;28;20448;-72
2022/09/25 14:28:02;;;;;;;5.27;4.77;;;17.80;99.90;;;;;;4974040;28;20451;-69
2022/09/25 14:30:31;;;;;;;5.80;5.20;;;17.70;99.90;;;;;;4974576;28;20474;-70
2022/09/25 14:33:27;;;;;;;5.83;5.13;;;17.60;99.90;;;;;;4970778;28;20172;-69
2022/09/25 14:36:04;;;;;;;6.23;5.07;;;17.50;99.90;;;;;;4974508;28;20427;-71
2022/09/25 14:38:49;;;;;;;5.77;4.73;;;17.40;99.90;;;;;;4974629;28;20479;-69
2022/09/25 14:41:43;;;;;;;6.70;4.53;;;17.40;99.90;;;;;;4975169;28;20423;-69
2022/09/25 14:44:17;;;;;;;5.07;3.80;;;17.30;99.90;;;;;;4972960;28;20439;-70
2022/09/25 14:46:48;;;;;;;4.47;4.07;;;17.20;99.90;;;;;;4974070;28;20424;-70
2022/09/25 14:49:30;;;;;;;4.80;4.40;;;17.30;99.90;;;;;;4973844;28;20998;-69
2022/09/25 14:52:00;;;;;;;4.20;3.80;;;17.30;99.90;;;;;;4972886;28;20570;-70
2022/09/25 14:54:31;;;;;;;4.80;4.03;;;17.40;99.90;;;;;;4974963;28;20450;-70
2022/09/25 14:56:58;;;;;;;4.00;3.60;;;17.50;99.90;;;;;;4976710;28;20422;-70
2022/09/25 14:59:38;;;;;;;4.40;3.90;;;17.50;99.90;;;;;;4977926;28;20846;-70
2022/09/25 15:02:16;;;;;;;5.03;4.63;;;17.40;99.90;;;;;;4976637;28;20419;-71
2022/09/25 15:04:41;;;;;;;4.90;4.47;;;17.40;99.90;;;;;;4976977;28;20533;-70
2022/09/25 15:07:07;;;;;;;3.33;3.03;;;17.30;99.90;;;;;;4977690;28;20414;-71
2022/09/25 15:09:48;;;;;;;2.60;2.40;;;17.30;99.90;;;;;;4976538;28;20192;-71
2022/09/25 15:12:22;;;;;;;3.00;2.80;;;17.30;99.90;;;;;;4977754;28;20168;-70
2022/09/25 15:15:11;;;;;;;3.03;2.83;;;17.20;99.90;;;;;;4977271;28;20437;-69
2022/09/25 15:17:48;;;;;;;3.20;2.90;;;17.20;99.90;;;;;;4976894;28;20486;-68
2022/09/25 15:20:18;;;;;;;3.33;3.10;;;17.10;99.90;;;;;;4977681;28;20412;-70
2022/09/25 15:22:58;;;;;;;3.77;3.30;;;17.00;99.90;;;;;;4977392;28;20426;-72
2022/09/25 15:25:38;;;;;;;4.80;4.00;;;16.90;99.90;;;;;;4976116;28;20948;-70
2022/09/25 15:28:12;;;;;;;3.60;3.30;;;16.80;99.90;;;;;;4975994;28;20428;-69
2022/09/25 15:30:40;;;;;;;3.43;3.13;;;16.60;99.90;;;;;;4976770;28;20448;-69
2022/09/25 15:33:24;;;;;;;3.83;3.53;;;16.50;99.90;;;;;;4977239;28;20417;-70
2022/09/25 15:35:58;;;;;;;4.50;3.33;;;16.50;99.90;;;;;;4977388;28;20503;-72
2022/09/25 15:38:31;;;;;;;3.33;3.03;;;16.40;99.90;;;;;;4976133;28;20406;-74
2022/09/25 15:40:57;;;;;;;3.10;2.80;;;16.40;99.90;;;;;;4975683;28;20905;-73
2022/09/25 15:43:23;;;;;;;2.50;2.30;;;16.30;99.90;;;;;;4976920;28;20414;-69
2022/09/25 15:45:58;;;;;;;3.70;3.40;;;16.30;99.90;;;;;;4976618;28;20775;-67
2022/09/25 15:48:31;;;;;;;2.67;2.40;;;16.20;99.90;;;;;;4977000;28;20420;-69
2022/09/25 15:51:00;;;;;;;3.23;2.93;;;16.10;99.90;;;;;;4976877;28;20389;-70
2022/09/25 15:53:42;;;;;;;3.07;2.80;;;16.10;99.90;;;;;;4974232;28;20433;-71
2022/09/25 15:56:20;;;;;;;2.50;2.30;;;16.00;99.90;;;;;;4969730;28;20424;-69
2022/09/25 15:59:02;;;;;;;3.33;3.00;;;16.00;99.90;;;;;;4976911;28;20408;-72
2022/09/25 16:07:22;;;;;;;3.57;3.10;;;16.00;99.90;;;;;;4976087;28;20526;-68
2022/09/25 16:09:50;;;;;;;2.90;2.47;;;15.90;99.90;;;;;;4976081;28;20467;-71
2022/09/25 16:12:24;;;;;;;2.60;2.40;;;15.90;99.90;;;;;;4966304;28;20435;-71
2022/09/25 16:14:51;;;;;;;2.73;2.50;;;15.90;99.90;;;;;;4960636;28;20451;-70
2022/09/25 16:17:30;;;;;;;2.30;2.10;;;15.80;99.90;;;;;;4976411;28;20835;-69
2022/09/25 16:19:58;;;;;;;2.17;2.07;;;15.70;99.90;;;;;;4964890;28;20433;-66
2022/09/25 16:22:24;;;;;;;2.80;2.27;;;15.70;99.90;;;;;;4970493;28;20435;-69
2022/09/25 16:24:52;;;;;;;2.83;2.60;;;15.70;99.90;;;;;;4975005;28;20439;-68
2022/09/25 16:27:25;;;;;;;3.03;2.80;;;15.70;99.90;;;;;;4976472;28;20415;-66
2022/09/25 16:29:53;;;;;;;2.90;2.70;;;15.70;99.90;;;;;;4975983;28;20510;-67
2022/09/25 16:32:20;;;;;;;1.90;1.80;;;15.60;99.90;;;;;;4976024;28;20408;-69
2022/09/25 16:34:57;;;;;;;2.30;2.10;;;15.50;99.90;;;;;;4976085;28;20778;-66
2022/09/25 16:37:27;;;;;;;2.03;1.90;;;15.50;99.90;;;;;;4976092;28;20429;-67
2022/09/25 16:40:20;;;;;;;1.83;1.73;;;15.50;99.90;;;;;;4969435;28;20451;-67
2022/09/25 16:42:46;;;;;;;1.70;1.60;;;15.30;99.90;;;;;;4961721;28;20455;-67
2022/09/25 16:45:24;;;;;;;2.60;2.40;;;15.20;99.90;;;;;;4972820;28;20466;-68
2022/09/25 16:47:51;;;;;;;1.90;1.80;;;15.10;99.90;;;;;;4975840;28;20442;-67
2022/09/25 16:50:21;;;;;;;2.33;2.13;;;15.10;99.90;;;;;;4975822;28;20451;-66
2022/09/25 16:52:47;;;;;;;3.10;2.87;;;15.00;99.90;;;;;;4974069;28;20420;-68
2022/09/25 16:55:17;;;;;;;5.83;4.73;;;15.00;99.90;;;;;;4975403;28;20443;-66
2022/09/25 16:57:43;;;;;;;4.77;3.83;;;14.90;99.90;;;;;;4975851;28;20412;-68
2022/09/25 17:00:22;;;;;;;2.80;2.60;;;14.90;99.90;;;;;;4974971;28;20521;-69
2022/09/25 17:02:48;;;;;;;2.47;2.27;;;14.80;99.90;;;;;;4974003;28;20454;-71
2022/09/25 17:05:26;;;;;;;2.77;2.57;;;14.80;99.90;;;;;;4973229;28;20868;-69
2022/09/25 17:07:55;;;;;;;3.40;3.10;;;14.70;99.90;;;;;;4973774;28;20901;-69
2022/09/25 17:10:24;;;;;;;3.53;2.73;;;14.60;99.90;;;;;;4973901;28;20943;-70
2022/09/25 17:12:52;;;;;;;3.90;3.23;;;14.60;99.90;;;;;;4974774;28;20416;-71
2022/09/25 17:15:33;;;;;;;3.17;2.97;;;14.60;99.90;;;;;;4970669;28;20440;-69
2022/09/25 17:18:00;;;;;;;3.30;2.70;;;14.50;99.90;;;;;;4975244;28;20465;-69
2022/09/25 17:20:29;;;;;;;3.83;3.43;;;14.40;99.90;;;;;;4974496;28;20423;-69
2022/09/25 17:22:55;;;;;;;3.90;3.60;;;14.40;99.90;;;;;;4973859;28;20427;-70
2022/09/25 17:25:37;;;;;;;3.30;3.00;;;14.30;99.90;;;;;;4972892;28;20450;-67
2022/09/25 17:28:04;;;;;;;3.80;3.33;;;14.30;99.90;;;;;;4974956;28;20854;-69
2022/09/25 17:30:30;;;;;;;2.80;2.60;;;14.20;99.90;;;;;;4973655;28;20504;-70
2022/09/25 17:32:56;;;;;;;2.90;2.70;;;14.10;99.90;;;;;;4973441;28;20414;-70
2022/09/25 17:35:49;;;;;;;2.77;2.40;;;14.10;99.90;;;;;;4974065;28;20454;-70
2022/09/25 17:38:15;;;;;;;3.43;3.00;;;14.10;99.90;;;;;;4974992;28;20186;-70
2022/09/25 17:40:43;;;;;;;3.60;3.30;;;14.00;99.90;;;;;;4973748;28;20442;-70
2022/09/25 17:43:10;;;;;;;3.80;3.10;;;14.00;99.90;;;;;;4973750;28;20439;-71
2022/09/25 17:45:49;;;;;;;3.40;3.10;;;14.10;99.90;;;;;;4974785;28;20419;-71